sensor_id;sensor_type;location;lat;lon;timestamp;P1;durP1;ratioP1;P2;durP2;ratioP2
33858;SDS011;20156;47.486;12.074;2023-09-19T00:00:23;2.05;;;1.65;;
33858;SDS011;20156;47.486;12.074;2023-09-19T00:02:55;2.97;;;2.00;;
33858;SDS011;20156;47.486;12.074;2023-09-19T00:05:22;2.80;;;2.13;;
33858;SDS011;20156;47.486;12.074;2023-09-19T00:07:49;2.90;;;1.92;;
33858;SDS011;20156;47.486;12.074;2023-09-19T00:10:16;4.57;;;2.00;;
33858;SDS011;20156;47.486;12.074;2023-09-19T00:12:45;4.28;;;2.10;;
33858;SDS011;20156;47.486;12.074;2023-09-19T00:15:10;2.67;;;2.05;;
33858;SDS011;20156;47.486;12.074;2023-09-19T00:17:36;3.10;;;2.00;;
33858;SDS011;20156;47.486;12.074;2023-09-19T00:20:02;2.97;;;2.10;;
33858;SDS011;20156;47.486;12.074;2023-09-19T00:22:39;5.07;;;2.10;;
33858;SDS011;20156;47.486;12.074;2023-09-19T00:25:05;5.60;;;2.13;;
33858;SDS011;20156;47.486;12.074;2023-09-19T00:27:31;1.83;;;1.67;;
33858;SDS011;20156;47.486;12.074;2023-09-19T00:29:58;4.15;;;2.20;;
33858;SDS011;20156;47.486;12.074;2023-09-19T00:32:24;2.50;;;1.60;;
33858;SDS011;20156;47.486;12.074;2023-09-19T00:34:49;2.70;;;1.80;;
33858;SDS011;20156;47.486;12.074;2023-09-19T00:37:14;2.58;;;2.00;;
33858;SDS011;20156;47.486;12.074;2023-09-19T00:39:42;2.33;;;1.80;;
33858;SDS011;20156;47.486;12.074;2023-09-19T00:42:08;5.78;;;4.47;;
33858;SDS011;20156;47.486;12.074;2023-09-19T00:44:33;8.23;;;5.57;;
33858;SDS011;20156;47.486;12.074;2023-09-19T00:46:59;8.25;;;4.72;;
33858;SDS011;20156;47.486;12.074;2023-09-19T00:49:27;5.43;;;4.45;;
33858;SDS011;20156;47.486;12.074;2023-09-19T00:51:52;8.90;;;5.30;;
33858;SDS011;20156;47.486;12.074;2023-09-19T00:54:18;6.82;;;5.45;;
33858;SDS011;20156;47.486;12.074;2023-09-19T00:56:44;6.97;;;4.97;;
33858;SDS011;20156;47.486;12.074;2023-09-19T00:59:10;4.80;;;4.07;;
33858;SDS011;20156;47.486;12.074;2023-09-19T01:01:37;4.72;;;3.35;;
33858;SDS011;20156;47.486;12.074;2023-09-19T01:04:05;4.28;;;2.88;;
33858;SDS011;20156;47.486;12.074;2023-09-19T01:06:30;4.65;;;2.17;;
33858;SDS011;20156;47.486;12.074;2023-09-19T01:08:56;3.50;;;2.10;;
33858;SDS011;20156;47.486;12.074;2023-09-19T01:11:28;5.05;;;2.00;;
33858;SDS011;20156;47.486;12.074;2023-09-19T01:16:42;4.63;;;2.92;;
33858;SDS011;20156;47.486;12.074;2023-09-19T01:19:29;5.32;;;3.20;;
33858;SDS011;20156;47.486;12.074;2023-09-19T01:28:06;2.30;;;1.95;;
33858;SDS011;20156;47.486;12.074;2023-09-19T01:30:35;2.15;;;1.95;;
33858;SDS011;20156;47.486;12.074;2023-09-19T01:33:08;3.97;;;1.80;;
33858;SDS011;20156;47.486;12.074;2023-09-19T01:35:37;2.08;;;1.88;;
33858;SDS011;20156;47.486;12.074;2023-09-19T01:38:04;1.80;;;1.70;;
33858;SDS011;20156;47.486;12.074;2023-09-19T01:40:43;2.10;;;1.90;;
33858;SDS011;20156;47.486;12.074;2023-09-19T01:45:59;3.47;;;1.90;;
33858;SDS011;20156;47.486;12.074;2023-09-19T01:48:42;2.10;;;1.90;;
33858;SDS011;20156;47.486;12.074;2023-09-19T01:51:21;2.08;;;1.80;;
33858;SDS011;20156;47.486;12.074;2023-09-19T01:54:12;1.80;;;1.70;;
33858;SDS011;20156;47.486;12.074;2023-09-19T01:56:52;2.22;;;2.03;;
33858;SDS011;20156;47.486;12.074;2023-09-19T01:59:31;2.20;;;1.98;;
33858;SDS011;20156;47.486;12.074;2023-09-19T02:02:03;2.55;;;2.35;;
33858;SDS011;20156;47.486;12.074;2023-09-19T02:04:32;3.47;;;2.40;;
33858;SDS011;20156;47.486;12.074;2023-09-19T02:06:59;2.58;;;2.20;;
33858;SDS011;20156;47.486;12.074;2023-09-19T02:09:25;2.90;;;1.80;;
33858;SDS011;20156;47.486;12.074;2023-09-19T02:11:51;2.47;;;2.13;;
33858;SDS011;20156;47.486;12.074;2023-09-19T02:14:16;5.65;;;2.47;;
33858;SDS011;20156;47.486;12.074;2023-09-19T02:16:42;5.38;;;2.42;;
33858;SDS011;20156;47.486;12.074;2023-09-19T02:19:07;3.08;;;2.20;;
33858;SDS011;20156;47.486;12.074;2023-09-19T02:21:33;3.05;;;2.00;;
33858;SDS011;20156;47.486;12.074;2023-09-19T02:23:58;2.03;;;1.83;;
33858;SDS011;20156;47.486;12.074;2023-09-19T02:26:24;3.47;;;2.00;;
33858;SDS011;20156;47.486;12.074;2023-09-19T02:28:49;5.82;;;2.20;;
33858;SDS011;20156;47.486;12.074;2023-09-19T02:31:15;4.43;;;2.47;;
33858;SDS011;20156;47.486;12.074;2023-09-19T02:33:41;4.10;;;2.50;;
33858;SDS011;20156;47.486;12.074;2023-09-19T02:36:07;2.83;;;2.63;;
33858;SDS011;20156;47.486;12.074;2023-09-19T02:38:33;3.40;;;2.65;;
33858;SDS011;20156;47.486;12.074;2023-09-19T02:40:59;3.40;;;2.30;;
33858;SDS011;20156;47.486;12.074;2023-09-19T02:43:24;2.72;;;2.50;;
33858;SDS011;20156;47.486;12.074;2023-09-19T02:45:50;2.58;;;2.00;;
33858;SDS011;20156;47.486;12.074;2023-09-19T02:48:18;3.20;;;2.88;;
33858;SDS011;20156;47.486;12.074;2023-09-19T02:50:44;2.58;;;2.15;;
33858;SDS011;20156;47.486;12.074;2023-09-19T02:53:09;3.05;;;2.00;;
33858;SDS011;20156;47.486;12.074;2023-09-19T02:55:37;2.00;;;1.70;;
33858;SDS011;20156;47.486;12.074;2023-09-19T02:58:05;3.20;;;1.95;;
33858;SDS011;20156;47.486;12.074;2023-09-19T03:00:33;2.58;;;2.00;;
33858;SDS011;20156;47.486;12.074;2023-09-19T03:03:00;2.92;;;2.17;;
33858;SDS011;20156;47.486;12.074;2023-09-19T03:05:27;2.38;;;2.20;;
33858;SDS011;20156;47.486;12.074;2023-09-19T03:07:56;2.95;;;2.50;;
33858;SDS011;20156;47.486;12.074;2023-09-19T03:10:22;3.10;;;2.47;;
33858;SDS011;20156;47.486;12.074;2023-09-19T03:12:48;2.60;;;2.28;;
33858;SDS011;20156;47.486;12.074;2023-09-19T03:15:14;3.78;;;2.40;;
33858;SDS011;20156;47.486;12.074;2023-09-19T03:17:47;2.88;;;2.28;;
33858;SDS011;20156;47.486;12.074;2023-09-19T03:20:13;3.33;;;2.70;;
33858;SDS011;20156;47.486;12.074;2023-09-19T03:22:42;2.42;;;2.22;;
33858;SDS011;20156;47.486;12.074;2023-09-19T03:25:08;3.03;;;2.50;;
33858;SDS011;20156;47.486;12.074;2023-09-19T03:27:35;3.90;;;2.75;;
33858;SDS011;20156;47.486;12.074;2023-09-19T03:30:00;2.85;;;2.63;;
33858;SDS011;20156;47.486;12.074;2023-09-19T03:32:30;2.65;;;2.45;;
33858;SDS011;20156;47.486;12.074;2023-09-19T03:34:55;4.07;;;2.80;;
33858;SDS011;20156;47.486;12.074;2023-09-19T03:37:21;2.50;;;2.30;;
33858;SDS011;20156;47.486;12.074;2023-09-19T03:39:46;3.00;;;2.42;;
33858;SDS011;20156;47.486;12.074;2023-09-19T03:42:12;2.40;;;2.20;;
33858;SDS011;20156;47.486;12.074;2023-09-19T03:44:37;2.50;;;2.30;;
33858;SDS011;20156;47.486;12.074;2023-09-19T03:47:03;2.60;;;1.98;;
33858;SDS011;20156;47.486;12.074;2023-09-19T03:49:29;3.92;;;2.08;;
33858;SDS011;20156;47.486;12.074;2023-09-19T03:51:55;2.75;;;2.20;;
33858;SDS011;20156;47.486;12.074;2023-09-19T03:54:21;2.13;;;1.80;;
33858;SDS011;20156;47.486;12.074;2023-09-19T03:56:46;2.55;;;1.90;;
33858;SDS011;20156;47.486;12.074;2023-09-19T03:59:12;2.08;;;1.90;;
33858;SDS011;20156;47.486;12.074;2023-09-19T04:01:37;3.75;;;1.90;;
33858;SDS011;20156;47.486;12.074;2023-09-19T04:04:03;3.38;;;2.30;;
33858;SDS011;20156;47.486;12.074;2023-09-19T04:06:34;2.45;;;2.05;;
33858;SDS011;20156;47.486;12.074;2023-09-19T04:09:00;3.15;;;2.30;;
33858;SDS011;20156;47.486;12.074;2023-09-19T04:11:26;3.15;;;2.70;;
33858;SDS011;20156;47.486;12.074;2023-09-19T04:13:52;2.45;;;2.25;;
33858;SDS011;20156;47.486;12.074;2023-09-19T04:16:17;2.45;;;2.00;;
33858;SDS011;20156;47.486;12.074;2023-09-19T04:18:42;1.90;;;1.80;;
33858;SDS011;20156;47.486;12.074;2023-09-19T04:21:08;2.80;;;2.05;;
33858;SDS011;20156;47.486;12.074;2023-09-19T04:23:34;2.05;;;1.85;;
33858;SDS011;20156;47.486;12.074;2023-09-19T04:25:59;3.58;;;3.13;;
33858;SDS011;20156;47.486;12.074;2023-09-19T04:28:25;4.53;;;2.45;;
33858;SDS011;20156;47.486;12.074;2023-09-19T04:30:52;3.80;;;2.53;;
33858;SDS011;20156;47.486;12.074;2023-09-19T04:33:18;3.63;;;3.05;;
33858;SDS011;20156;47.486;12.074;2023-09-19T04:35:43;3.28;;;2.35;;
33858;SDS011;20156;47.486;12.074;2023-09-19T04:38:09;4.07;;;2.35;;
33858;SDS011;20156;47.486;12.074;2023-09-19T04:40:34;3.08;;;2.60;;
33858;SDS011;20156;47.486;12.074;2023-09-19T04:43:00;3.25;;;2.67;;
33858;SDS011;20156;47.486;12.074;2023-09-19T04:45:26;4.53;;;2.78;;
33858;SDS011;20156;47.486;12.074;2023-09-19T04:47:53;3.20;;;2.47;;
33858;SDS011;20156;47.486;12.074;2023-09-19T04:50:19;3.75;;;2.33;;
33858;SDS011;20156;47.486;12.074;2023-09-19T04:52:50;2.72;;;2.15;;
33858;SDS011;20156;47.486;12.074;2023-09-19T04:55:16;15.25;;;6.70;;
33858;SDS011;20156;47.486;12.074;2023-09-19T04:57:49;5.43;;;3.53;;
33858;SDS011;20156;47.486;12.074;2023-09-19T05:00:24;3.80;;;2.97;;
33858;SDS011;20156;47.486;12.074;2023-09-19T05:02:53;5.57;;;3.08;;
33858;SDS011;20156;47.486;12.074;2023-09-19T05:05:21;4.32;;;2.95;;
33858;SDS011;20156;47.486;12.074;2023-09-19T05:07:47;4.03;;;2.60;;
33858;SDS011;20156;47.486;12.074;2023-09-19T05:10:13;4.63;;;2.85;;
33858;SDS011;20156;47.486;12.074;2023-09-19T05:12:39;4.55;;;2.70;;
33858;SDS011;20156;47.486;12.074;2023-09-19T05:15:06;4.47;;;2.85;;
33858;SDS011;20156;47.486;12.074;2023-09-19T05:17:32;3.45;;;2.75;;
33858;SDS011;20156;47.486;12.074;2023-09-19T05:19:58;3.38;;;2.88;;
33858;SDS011;20156;47.486;12.074;2023-09-19T05:22:28;4.90;;;3.40;;
33858;SDS011;20156;47.486;12.074;2023-09-19T05:24:54;4.65;;;3.22;;
33858;SDS011;20156;47.486;12.074;2023-09-19T05:27:19;4.43;;;3.08;;
33858;SDS011;20156;47.486;12.074;2023-09-19T05:29:46;3.33;;;3.03;;
33858;SDS011;20156;47.486;12.074;2023-09-19T05:32:11;4.25;;;2.50;;
33858;SDS011;20156;47.486;12.074;2023-09-19T05:34:37;4.32;;;3.08;;
33858;SDS011;20156;47.486;12.074;2023-09-19T05:37:03;8.27;;;3.45;;
33858;SDS011;20156;47.486;12.074;2023-09-19T05:39:32;4.05;;;3.50;;
33858;SDS011;20156;47.486;12.074;2023-09-19T05:41:57;6.57;;;3.25;;
33858;SDS011;20156;47.486;12.074;2023-09-19T05:44:23;3.65;;;3.17;;
33858;SDS011;20156;47.486;12.074;2023-09-19T05:46:48;4.50;;;3.55;;
33858;SDS011;20156;47.486;12.074;2023-09-19T05:49:14;4.88;;;4.15;;
33858;SDS011;20156;47.486;12.074;2023-09-19T05:51:40;5.50;;;3.30;;
33858;SDS011;20156;47.486;12.074;2023-09-19T05:54:06;4.13;;;3.10;;
33858;SDS011;20156;47.486;12.074;2023-09-19T05:56:31;3.65;;;3.35;;
33858;SDS011;20156;47.486;12.074;2023-09-19T05:58:56;4.88;;;3.20;;
33858;SDS011;20156;47.486;12.074;2023-09-19T06:01:22;3.97;;;3.08;;
33858;SDS011;20156;47.486;12.074;2023-09-19T06:03:47;3.83;;;3.50;;
33858;SDS011;20156;47.486;12.074;2023-09-19T06:06:13;3.30;;;3.10;;
33858;SDS011;20156;47.486;12.074;2023-09-19T06:08:39;3.45;;;3.15;;
33858;SDS011;20156;47.486;12.074;2023-09-19T06:11:04;3.10;;;2.80;;
33858;SDS011;20156;47.486;12.074;2023-09-19T06:13:32;3.33;;;2.97;;
33858;SDS011;20156;47.486;12.074;2023-09-19T06:15:58;3.67;;;3.13;;
33858;SDS011;20156;47.486;12.074;2023-09-19T06:18:25;3.30;;;2.95;;
33858;SDS011;20156;47.486;12.074;2023-09-19T06:20:51;4.70;;;3.08;;
33858;SDS011;20156;47.486;12.074;2023-09-19T06:23:17;5.95;;;2.70;;
33858;SDS011;20156;47.486;12.074;2023-09-19T06:25:45;4.70;;;3.30;;
33858;SDS011;20156;47.486;12.074;2023-09-19T06:28:10;4.47;;;3.38;;
33858;SDS011;20156;47.486;12.074;2023-09-19T06:30:37;4.05;;;2.67;;
33858;SDS011;20156;47.486;12.074;2023-09-19T06:33:05;4.05;;;3.13;;
33858;SDS011;20156;47.486;12.074;2023-09-19T06:35:32;4.03;;;2.60;;
33858;SDS011;20156;47.486;12.074;2023-09-19T06:38:03;3.08;;;2.75;;
33858;SDS011;20156;47.486;12.074;2023-09-19T06:40:29;6.30;;;3.25;;
33858;SDS011;20156;47.486;12.074;2023-09-19T06:42:56;4.57;;;2.78;;
33858;SDS011;20156;47.486;12.074;2023-09-19T06:45:21;5.28;;;2.70;;
33858;SDS011;20156;47.486;12.074;2023-09-19T06:47:48;4.03;;;2.80;;
33858;SDS011;20156;47.486;12.074;2023-09-19T06:50:18;3.70;;;2.50;;
33858;SDS011;20156;47.486;12.074;2023-09-19T06:52:47;3.30;;;3.00;;
33858;SDS011;20156;47.486;12.074;2023-09-19T06:55:15;3.47;;;3.05;;
33858;SDS011;20156;47.486;12.074;2023-09-19T06:57:41;5.25;;;3.15;;
33858;SDS011;20156;47.486;12.074;2023-09-19T07:00:09;6.88;;;3.35;;
33858;SDS011;20156;47.486;12.074;2023-09-19T07:05:29;3.13;;;2.83;;
33858;SDS011;20156;47.486;12.074;2023-09-19T07:07:56;3.90;;;3.60;;
33858;SDS011;20156;47.486;12.074;2023-09-19T07:10:24;4.28;;;3.80;;
33858;SDS011;20156;47.486;12.074;2023-09-19T07:12:54;4.63;;;4.22;;
33858;SDS011;20156;47.486;12.074;2023-09-19T07:15:31;4.45;;;3.65;;
33858;SDS011;20156;47.486;12.074;2023-09-19T07:18:01;4.28;;;3.70;;
33858;SDS011;20156;47.486;12.074;2023-09-19T07:20:27;4.97;;;4.47;;
33858;SDS011;20156;47.486;12.074;2023-09-19T07:22:56;6.13;;;4.60;;
33858;SDS011;20156;47.486;12.074;2023-09-19T07:25:24;7.18;;;4.80;;
33858;SDS011;20156;47.486;12.074;2023-09-19T07:27:50;5.40;;;4.90;;
33858;SDS011;20156;47.486;12.074;2023-09-19T07:30:16;5.30;;;4.80;;
33858;SDS011;20156;47.486;12.074;2023-09-19T07:32:42;5.28;;;4.53;;
33858;SDS011;20156;47.486;12.074;2023-09-19T07:35:07;5.85;;;4.55;;
33858;SDS011;20156;47.486;12.074;2023-09-19T07:37:33;5.70;;;4.35;;
33858;SDS011;20156;47.486;12.074;2023-09-19T07:39:59;5.78;;;3.97;;
33858;SDS011;20156;47.486;12.074;2023-09-19T07:42:32;5.18;;;4.63;;
33858;SDS011;20156;47.486;12.074;2023-09-19T07:45:00;4.63;;;4.05;;
33858;SDS011;20156;47.486;12.074;2023-09-19T07:47:26;4.53;;;4.13;;
33858;SDS011;20156;47.486;12.074;2023-09-19T07:49:52;4.82;;;4.40;;
33858;SDS011;20156;47.486;12.074;2023-09-19T07:52:18;5.38;;;4.88;;
33858;SDS011;20156;47.486;12.074;2023-09-19T07:54:44;5.88;;;5.28;;
33858;SDS011;20156;47.486;12.074;2023-09-19T07:57:10;5.40;;;4.90;;
33858;SDS011;20156;47.486;12.074;2023-09-19T07:59:36;5.53;;;4.90;;
33858;SDS011;20156;47.486;12.074;2023-09-19T08:02:03;6.70;;;4.28;;
33858;SDS011;20156;47.486;12.074;2023-09-19T08:04:29;6.35;;;4.20;;
33858;SDS011;20156;47.486;12.074;2023-09-19T08:06:58;5.13;;;4.47;;
33858;SDS011;20156;47.486;12.074;2023-09-19T08:09:24;7.97;;;5.00;;
33858;SDS011;20156;47.486;12.074;2023-09-19T08:11:49;5.35;;;4.85;;
33858;SDS011;20156;47.486;12.074;2023-09-19T08:14:15;6.93;;;5.30;;
33858;SDS011;20156;47.486;12.074;2023-09-19T08:16:41;5.20;;;4.70;;
33858;SDS011;20156;47.486;12.074;2023-09-19T08:19:07;4.85;;;4.45;;
33858;SDS011;20156;47.486;12.074;2023-09-19T08:21:35;5.88;;;4.22;;
33858;SDS011;20156;47.486;12.074;2023-09-19T08:24:01;5.93;;;3.95;;
33858;SDS011;20156;47.486;12.074;2023-09-19T08:26:29;6.45;;;4.30;;
33858;SDS011;20156;47.486;12.074;2023-09-19T08:28:56;4.50;;;4.10;;
33858;SDS011;20156;47.486;12.074;2023-09-19T08:31:21;5.95;;;3.70;;
33858;SDS011;20156;47.486;12.074;2023-09-19T08:33:47;3.90;;;3.20;;
33858;SDS011;20156;47.486;12.074;2023-09-19T08:36:14;3.60;;;3.30;;
33858;SDS011;20156;47.486;12.074;2023-09-19T08:38:40;3.50;;;3.20;;
33858;SDS011;20156;47.486;12.074;2023-09-19T08:41:06;4.57;;;3.42;;
33858;SDS011;20156;47.486;12.074;2023-09-19T08:43:32;3.13;;;2.83;;
33858;SDS011;20156;47.486;12.074;2023-09-19T08:48:29;5.15;;;3.58;;
33858;SDS011;20156;47.486;12.074;2023-09-19T08:51:03;4.93;;;3.63;;
33858;SDS011;20156;47.486;12.074;2023-09-19T08:56:18;4.00;;;3.30;;
33858;SDS011;20156;47.486;12.074;2023-09-19T09:01:18;3.97;;;3.42;;
33858;SDS011;20156;47.486;12.074;2023-09-19T09:03:51;6.15;;;3.22;;
33858;SDS011;20156;47.486;12.074;2023-09-19T09:06:17;6.20;;;3.13;;
33858;SDS011;20156;47.486;12.074;2023-09-19T09:08:45;7.18;;;3.13;;
33858;SDS011;20156;47.486;12.074;2023-09-19T09:11:12;4.57;;;3.20;;
33858;SDS011;20156;47.486;12.074;2023-09-19T09:13:38;4.18;;;2.75;;
33858;SDS011;20156;47.486;12.074;2023-09-19T09:16:06;5.80;;;3.33;;
33858;SDS011;20156;47.486;12.074;2023-09-19T09:18:32;4.05;;;3.38;;
33858;SDS011;20156;47.486;12.074;2023-09-19T09:20:58;5.45;;;3.95;;
33858;SDS011;20156;47.486;12.074;2023-09-19T09:23:23;4.30;;;3.83;;
33858;SDS011;20156;47.486;12.074;2023-09-19T09:25:54;5.18;;;3.63;;
33858;SDS011;20156;47.486;12.074;2023-09-19T09:28:25;5.25;;;3.33;;
33858;SDS011;20156;47.486;12.074;2023-09-19T09:30:53;7.35;;;3.00;;
33858;SDS011;20156;47.486;12.074;2023-09-19T09:33:19;4.63;;;2.63;;
33858;SDS011;20156;47.486;12.074;2023-09-19T09:38:20;4.38;;;2.30;;
33858;SDS011;20156;47.486;12.074;2023-09-19T09:40:51;3.03;;;2.47;;
33858;SDS011;20156;47.486;12.074;2023-09-19T09:46:15;3.72;;;2.80;;
33858;SDS011;20156;47.486;12.074;2023-09-19T09:48:48;4.38;;;2.75;;
33858;SDS011;20156;47.486;12.074;2023-09-19T09:51:43;5.20;;;3.10;;
33858;SDS011;20156;47.486;12.074;2023-09-19T09:54:23;3.63;;;2.80;;
33858;SDS011;20156;47.486;12.074;2023-09-19T09:56:53;6.60;;;3.58;;
33858;SDS011;20156;47.486;12.074;2023-09-19T09:59:22;7.95;;;2.80;;
33858;SDS011;20156;47.486;12.074;2023-09-19T10:01:50;5.65;;;3.05;;
33858;SDS011;20156;47.486;12.074;2023-09-19T10:04:28;5.65;;;2.80;;
33858;SDS011;20156;47.486;12.074;2023-09-19T10:07:01;7.70;;;2.85;;
33858;SDS011;20156;47.486;12.074;2023-09-19T10:09:30;5.80;;;2.80;;
33858;SDS011;20156;47.486;12.074;2023-09-19T10:12:09;4.90;;;2.55;;
33858;SDS011;20156;47.486;12.074;2023-09-19T10:14:38;3.95;;;2.20;;
33858;SDS011;20156;47.486;12.074;2023-09-19T10:17:06;2.83;;;2.10;;
33858;SDS011;20156;47.486;12.074;2023-09-19T10:19:56;3.40;;;2.30;;
33858;SDS011;20156;47.486;12.074;2023-09-19T10:22:24;3.38;;;1.90;;
33858;SDS011;20156;47.486;12.074;2023-09-19T10:24:53;3.65;;;1.88;;
33858;SDS011;20156;47.486;12.074;2023-09-19T10:27:21;3.22;;;2.38;;
33858;SDS011;20156;47.486;12.074;2023-09-19T10:29:51;6.53;;;2.45;;
33858;SDS011;20156;47.486;12.074;2023-09-19T10:32:22;4.55;;;1.90;;
33858;SDS011;20156;47.486;12.074;2023-09-19T10:34:48;4.45;;;2.10;;
33858;SDS011;20156;47.486;12.074;2023-09-19T10:37:15;4.95;;;2.00;;
33858;SDS011;20156;47.486;12.074;2023-09-19T10:39:45;2.30;;;1.90;;
33858;SDS011;20156;47.486;12.074;2023-09-19T10:42:13;2.40;;;1.90;;
33858;SDS011;20156;47.486;12.074;2023-09-19T10:44:43;2.72;;;1.80;;
33858;SDS011;20156;47.486;12.074;2023-09-19T10:47:12;2.50;;;1.90;;
33858;SDS011;20156;47.486;12.074;2023-09-19T10:49:45;2.63;;;1.73;;
33858;SDS011;20156;47.486;12.074;2023-09-19T10:52:11;2.03;;;1.73;;
33858;SDS011;20156;47.486;12.074;2023-09-19T10:54:44;3.33;;;1.58;;
33858;SDS011;20156;47.486;12.074;2023-09-19T10:57:18;2.88;;;1.50;;
33858;SDS011;20156;47.486;12.074;2023-09-19T11:00:04;2.33;;;1.50;;
33858;SDS011;20156;47.486;12.074;2023-09-19T11:05:59;1.50;;;1.40;;
33858;SDS011;20156;47.486;12.074;2023-09-19T11:08:26;1.60;;;1.48;;
33858;SDS011;20156;47.486;12.074;2023-09-19T11:10:52;1.73;;;1.63;;
33858;SDS011;20156;47.486;12.074;2023-09-19T11:13:24;1.35;;;1.23;;
33858;SDS011;20156;47.486;12.074;2023-09-19T11:24:29;1.95;;;1.67;;
33858;SDS011;20156;47.486;12.074;2023-09-19T11:27:29;2.85;;;1.50;;
33858;SDS011;20156;47.486;12.074;2023-09-19T11:29:51;2.60;;;1.42;;
33858;SDS011;20156;47.486;12.074;2023-09-19T11:43:45;2.97;;;1.67;;
33858;SDS011;20156;47.486;12.074;2023-09-19T11:46:11;3.95;;;1.75;;
33858;SDS011;20156;47.486;12.074;2023-09-19T11:48:41;2.05;;;1.75;;
33858;SDS011;20156;47.486;12.074;2023-09-19T11:51:10;2.40;;;1.77;;
33858;SDS011;20156;47.486;12.074;2023-09-19T11:53:44;3.60;;;2.00;;
33858;SDS011;20156;47.486;12.074;2023-09-19T11:56:13;3.58;;;1.88;;
33858;SDS011;20156;47.486;12.074;2023-09-19T11:58:40;3.90;;;1.98;;
33858;SDS011;20156;47.486;12.074;2023-09-19T12:01:07;4.53;;;2.10;;
33858;SDS011;20156;47.486;12.074;2023-09-19T12:03:39;2.20;;;1.83;;
33858;SDS011;20156;47.486;12.074;2023-09-19T12:06:13;3.97;;;2.00;;
33858;SDS011;20156;47.486;12.074;2023-09-19T12:08:40;2.53;;;1.80;;
33858;SDS011;20156;47.486;12.074;2023-09-19T12:11:11;3.72;;;2.20;;
33858;SDS011;20156;47.486;12.074;2023-09-19T12:13:41;2.28;;;1.73;;
33858;SDS011;20156;47.486;12.074;2023-09-19T12:16:13;3.63;;;1.88;;
33858;SDS011;20156;47.486;12.074;2023-09-19T12:18:42;2.00;;;1.70;;
33858;SDS011;20156;47.486;12.074;2023-09-19T12:21:21;3.40;;;1.52;;
33858;SDS011;20156;47.486;12.074;2023-09-19T12:23:57;1.70;;;1.60;;
33858;SDS011;20156;47.486;12.074;2023-09-19T12:26:44;1.92;;;1.60;;
33858;SDS011;20156;47.486;12.074;2023-09-19T12:29:19;1.80;;;1.70;;
33858;SDS011;20156;47.486;12.074;2023-09-19T12:31:53;1.70;;;1.23;;
33858;SDS011;20156;47.486;12.074;2023-09-19T12:34:32;2.05;;;1.67;;
33858;SDS011;20156;47.486;12.074;2023-09-19T12:39:40;1.50;;;1.40;;
33858;SDS011;20156;47.486;12.074;2023-09-19T12:42:08;1.60;;;1.50;;
33858;SDS011;20156;47.486;12.074;2023-09-19T12:44:44;2.22;;;1.48;;
33858;SDS011;20156;47.486;12.074;2023-09-19T12:47:15;1.83;;;1.42;;
33858;SDS011;20156;47.486;12.074;2023-09-19T12:52:34;2.75;;;1.60;;
33858;SDS011;20156;47.486;12.074;2023-09-19T12:55:03;2.10;;;1.85;;
33858;SDS011;20156;47.486;12.074;2023-09-19T12:57:31;1.77;;;1.60;;
33858;SDS011;20156;47.486;12.074;2023-09-19T13:00:03;2.55;;;1.52;;
33858;SDS011;20156;47.486;12.074;2023-09-19T13:02:32;2.15;;;1.70;;
33858;SDS011;20156;47.486;12.074;2023-09-19T13:04:58;1.70;;;1.60;;
33858;SDS011;20156;47.486;12.074;2023-09-19T13:07:41;1.60;;;1.50;;
33858;SDS011;20156;47.486;12.074;2023-09-19T13:10:12;4.55;;;1.67;;
33858;SDS011;20156;47.486;12.074;2023-09-19T13:12:40;1.85;;;1.75;;
33858;SDS011;20156;47.486;12.074;2023-09-19T13:15:09;3.17;;;2.10;;
33858;SDS011;20156;47.486;12.074;2023-09-19T13:17:45;1.60;;;1.50;;
33858;SDS011;20156;47.486;12.074;2023-09-19T13:20:22;3.10;;;1.52;;
33858;SDS011;20156;47.486;12.074;2023-09-19T13:22:57;2.15;;;1.52;;
33858;SDS011;20156;47.486;12.074;2023-09-19T13:25:31;2.05;;;1.40;;
33858;SDS011;20156;47.486;12.074;2023-09-19T13:27:58;2.10;;;1.52;;
33858;SDS011;20156;47.486;12.074;2023-09-19T13:30:27;1.67;;;1.52;;
33858;SDS011;20156;47.486;12.074;2023-09-19T13:33:09;1.60;;;1.25;;
33858;SDS011;20156;47.486;12.074;2023-09-19T13:35:36;1.63;;;1.52;;
33858;SDS011;20156;47.486;12.074;2023-09-19T13:38:05;1.50;;;1.30;;
33858;SDS011;20156;47.486;12.074;2023-09-19T13:40:31;2.42;;;1.20;;
33858;SDS011;20156;47.486;12.074;2023-09-19T13:43:00;1.30;;;1.00;;
33858;SDS011;20156;47.486;12.074;2023-09-19T13:45:26;1.05;;;1.05;;
33858;SDS011;20156;47.486;12.074;2023-09-19T13:47:52;1.52;;;1.40;;
33858;SDS011;20156;47.486;12.074;2023-09-19T13:50:18;0.90;;;0.90;;
33858;SDS011;20156;47.486;12.074;2023-09-19T13:52:49;1.20;;;1.10;;
33858;SDS011;20156;47.486;12.074;2023-09-19T13:55:16;1.23;;;1.10;;
33858;SDS011;20156;47.486;12.074;2023-09-19T13:57:47;1.50;;;1.20;;
33858;SDS011;20156;47.486;12.074;2023-09-19T14:00:19;2.15;;;1.15;;
33858;SDS011;20156;47.486;12.074;2023-09-19T14:02:45;1.15;;;1.00;;
33858;SDS011;20156;47.486;12.074;2023-09-19T14:05:11;1.95;;;1.10;;
33858;SDS011;20156;47.486;12.074;2023-09-19T14:07:40;3.72;;;1.05;;
33858;SDS011;20156;47.486;12.074;2023-09-19T14:10:06;2.15;;;1.10;;
33858;SDS011;20156;47.486;12.074;2023-09-19T14:12:36;1.15;;;1.08;;
33858;SDS011;20156;47.486;12.074;2023-09-19T14:15:02;1.67;;;1.00;;
33858;SDS011;20156;47.486;12.074;2023-09-19T14:17:29;2.42;;;0.98;;
33858;SDS011;20156;47.486;12.074;2023-09-19T14:19:54;2.75;;;1.20;;
33858;SDS011;20156;47.486;12.074;2023-09-19T14:22:20;1.88;;;1.02;;
33858;SDS011;20156;47.486;12.074;2023-09-19T14:24:46;3.05;;;0.90;;
33858;SDS011;20156;47.486;12.074;2023-09-19T14:27:12;1.33;;;1.08;;
33858;SDS011;20156;47.486;12.074;2023-09-19T14:29:38;1.15;;;0.98;;
33858;SDS011;20156;47.486;12.074;2023-09-19T14:32:04;1.00;;;0.90;;
33858;SDS011;20156;47.486;12.074;2023-09-19T14:34:30;3.95;;;1.30;;
33858;SDS011;20156;47.486;12.074;2023-09-19T14:36:56;1.35;;;0.90;;
33858;SDS011;20156;47.486;12.074;2023-09-19T14:39:21;1.17;;;1.08;;
33858;SDS011;20156;47.486;12.074;2023-09-19T14:41:48;1.38;;;1.00;;
33858;SDS011;20156;47.486;12.074;2023-09-19T14:44:13;1.25;;;0.80;;
33858;SDS011;20156;47.486;12.074;2023-09-19T14:46:41;1.10;;;1.00;;
33858;SDS011;20156;47.486;12.074;2023-09-19T14:49:06;1.20;;;1.10;;
33858;SDS011;20156;47.486;12.074;2023-09-19T14:51:35;1.00;;;1.00;;
33858;SDS011;20156;47.486;12.074;2023-09-19T14:54:00;2.05;;;1.10;;
33858;SDS011;20156;47.486;12.074;2023-09-19T14:56:27;1.70;;;1.10;;
33858;SDS011;20156;47.486;12.074;2023-09-19T14:58:55;1.52;;;1.40;;
33858;SDS011;20156;47.486;12.074;2023-09-19T15:01:21;1.23;;;1.02;;
33858;SDS011;20156;47.486;12.074;2023-09-19T15:03:47;1.20;;;1.10;;
33858;SDS011;20156;47.486;12.074;2023-09-19T15:06:14;3.25;;;1.25;;
33858;SDS011;20156;47.486;12.074;2023-09-19T15:08:43;1.33;;;1.20;;
33858;SDS011;20156;47.486;12.074;2023-09-19T15:11:16;1.20;;;1.10;;
33858;SDS011;20156;47.486;12.074;2023-09-19T15:13:43;1.30;;;1.20;;
33858;SDS011;20156;47.486;12.074;2023-09-19T15:16:10;1.35;;;1.08;;
33858;SDS011;20156;47.486;12.074;2023-09-19T15:18:38;1.27;;;1.17;;
33858;SDS011;20156;47.486;12.074;2023-09-19T15:21:07;1.23;;;1.13;;
33858;SDS011;20156;47.486;12.074;2023-09-19T15:23:35;0.80;;;0.80;;
33858;SDS011;20156;47.486;12.074;2023-09-19T15:26:06;0.95;;;0.75;;
33858;SDS011;20156;47.486;12.074;2023-09-19T15:28:39;1.02;;;0.93;;
33858;SDS011;20156;47.486;12.074;2023-09-19T15:31:09;1.65;;;1.10;;
33858;SDS011;20156;47.486;12.074;2023-09-19T15:33:36;2.13;;;1.08;;
33858;SDS011;20156;47.486;12.074;2023-09-19T15:36:06;1.15;;;0.95;;